Time;durP1;ratioP1;P1;durP2;ratioP2;P2;SDS_P1;SDS_P2;PMS_P1;PMS_P2;Temp;Humidity;BMP_temperature;BMP_pressure;BME280_temperature;BME280_humidity;BME280_pressure;Samples;Min_cycle;Max_cycle;Signal;HPM_P1;HPM_P2
2021/10/02 00:01:44;;;;;;;;;;;;;;;9.61;69.85;102141.45;1831133;78;20140;-59
2021/10/02 00:34:01;;;;;;;;;;;;;;;9.55;70.33;102111.27;1860186;77;20119;-59
2021/10/02 00:41:49;;;;;;;;;;;;;;;9.52;70.32;102106.06;1860269;77;20145;-58
2021/10/02 00:46:53;;;;;;;;;;;;;;;9.50;70.28;102098.64;1860244;77;20149;-58
2021/10/02 00:49:20;;;;;;;;;;;;;;;9.50;70.53;102103.01;1860254;77;20110;-58
2021/10/02 00:51:49;;;;;;;;;;;;;;;9.49;70.46;102099.52;1860153;77;20299;-59
2021/10/02 00:54:16;;;;;;;;;;;;;;;9.48;70.33;102099.11;1860201;76;20130;-59
2021/10/02 00:56:44;;;;;;;;;;;;;;;9.49;70.14;102107.41;1860378;76;20149;-59
2021/10/02 00:59:12;;;;;;;;;;;;;;;9.48;70.33;102104.37;1860205;77;20149;-59
2021/10/02 01:01:44;;;;;;;;;;;;;;;9.47;70.44;102101.30;1860240;77;20165;-59
2021/10/02 01:04:30;;;;;;;;;;;;;;;9.47;70.33;102101.30;1860219;77;20149;-59
2021/10/02 01:06:59;;;;;;;;;;;;;;;9.47;70.29;102099.98;1860137;76;20114;-59
2021/10/02 01:09:29;;;;;;;;;;;;;;;9.46;70.25;102100.86;1860509;76;20122;-58
2021/10/02 01:11:58;;;;;;;;;;;;;;;9.45;70.23;102099.14;1860281;77;20118;-58
2021/10/02 01:14:43;;;;;;;;;;;;;;;9.45;70.50;102095.20;1860659;76;20122;-59
2021/10/02 01:17:15;;;;;;;;;;;;;;;9.44;70.45;102091.70;1860347;76;20122;-59
2021/10/02 01:19:45;;;;;;;;;;;;;;;9.45;70.62;102095.20;1860539;76;20205;-59
2021/10/02 01:22:32;;;;;;;;;;;;;;;9.44;70.50;102096.07;1860683;76;20123;-59
2021/10/02 01:25:08;;;;;;;;;;;;;;;9.44;70.32;102094.76;1860205;76;20127;-58
2021/10/02 01:27:50;;;;;;;;;;;;;;;9.44;70.47;102090.81;1860454;76;20157;-59
2021/10/02 01:30:24;;;;;;;;;;;;;;;9.44;70.42;102085.55;1860224;77;20397;-59
2021/10/02 01:33:02;;;;;;;;;;;;;;;9.44;70.40;102088.19;1859963;77;20200;-59
2021/10/02 01:48:51;;;;;;;;;;;;;;;9.35;70.31;102080.41;1860245;77;20149;-58
2021/10/02 01:51:20;;;;;;;;;;;;;;;9.33;70.38;102084.83;1860292;77;20311;-58
2021/10/02 01:53:49;;;;;;;;;;;;;;;9.33;70.66;102086.14;1861457;77;20130;-58
2021/10/02 01:56:18;;;;;;;;;;;;;;;9.32;70.45;102085.28;1863009;77;20114;-59
2021/10/02 01:58:47;;;;;;;;;;;;;;;9.31;70.63;102090.09;1862976;77;20122;-59
2021/10/02 02:01:15;;;;;;;;;;;;;;;9.32;70.65;102090.98;1862923;77;20122;-59
2021/10/02 02:03:44;;;;;;;;;;;;;;;9.31;70.57;102086.61;1863016;77;20118;-58
2021/10/02 02:06:12;;;;;;;;;;;;;;;9.31;70.46;102089.23;1863022;77;20110;-58
2021/10/02 02:08:42;;;;;;;;;;;;;;;9.30;70.38;102084.88;1862997;77;20161;-59
2021/10/02 02:11:10;;;;;;;;;;;;;;;9.31;70.30;102085.29;1863048;77;20153;-59
2021/10/02 02:13:39;;;;;;;;;;;;;;;9.32;70.47;102087.05;1863020;77;20114;-59
2021/10/02 02:16:07;;;;;;;;;;;;;;;9.31;70.36;102083.98;1862983;77;20177;-58
2021/10/02 02:18:35;;;;;;;;;;;;;;;9.32;70.37;102081.79;1862955;77;20106;-59
2021/10/02 02:21:05;;;;;;;;;;;;;;;9.31;70.29;102077.41;1863005;77;20110;-58
2021/10/02 02:23:32;;;;;;;;;;;;;;;9.32;70.35;102085.73;1863007;77;20118;-58
2021/10/02 02:26:02;;;;;;;;;;;;;;;9.30;70.14;102073.05;1863015;77;20440;-59
2021/10/02 02:28:30;;;;;;;;;;;;;;;9.32;70.18;102079.16;1862907;77;20251;-58
2021/10/02 02:31:00;;;;;;;;;;;;;;;9.32;70.15;102080.47;1936294;74;20142;-58
2021/10/02 02:33:28;;;;;;;;;;;;;;;9.31;70.16;102080.89;1948449;74;20151;-59
2021/10/02 02:35:56;;;;;;;;;;;;;;;9.31;70.01;102082.20;1948413;74;20113;-58
2021/10/02 02:38:24;;;;;;;;;;;;;;;9.31;69.90;102078.72;1948465;74;20156;-58
2021/10/02 02:40:52;;;;;;;;;;;;;;;9.31;69.88;102076.09;1948367;74;20101;-59
2021/10/02 02:43:20;;;;;;;;;;;;;;;9.30;69.83;102075.23;1948484;74;20117;-59
2021/10/02 02:45:55;;;;;;;;;;;;;;;9.30;69.79;102072.60;1948426;74;20096;-59
2021/10/02 02:48:24;;;;;;;;;;;;;;;9.31;69.83;102078.72;1948417;74;20143;-58
2021/10/02 02:50:57;;;;;;;;;;;;;;;9.31;70.07;102078.72;1948486;74;20096;-58
2021/10/02 02:53:29;;;;;;;;;;;;;;;9.32;70.10;102080.47;1948272;74;20186;-58
2021/10/02 02:55:58;;;;;;;;;;;;;;;9.30;70.34;102073.91;1948219;74;20113;-57
2021/10/02 02:58:27;;;;;;;;;;;;;;;9.31;70.15;102076.09;1947567;74;20116;-58
2021/10/02 03:00:56;;;;;;;;;;;;;;;9.30;70.21;102072.60;1948479;74;20147;-59
2021/10/02 03:03:31;;;;;;;;;;;;;;;9.30;70.14;102075.23;1948478;74;20442;-58
2021/10/02 03:06:01;;;;;;;;;;;;;;;9.31;70.01;102074.33;1948366;74;20143;-59
2021/10/02 03:08:30;;;;;;;;;;;;;;;9.31;70.29;102074.78;1947708;74;20138;-59
2021/10/02 03:11:01;;;;;;;;;;;;;;;9.30;70.51;102075.23;1948310;74;20104;-59
2021/10/02 03:13:30;;;;;;;;;;;;;;;9.27;70.66;102078.75;1948579;74;20101;-58
2021/10/02 03:15:58;;;;;;;;;;;;;;;9.25;70.56;102072.64;1948483;74;20421;-58
2021/10/02 03:18:27;;;;;;;;;;;;;;;9.22;70.64;102079.27;1948353;74;20147;-59
2021/10/02 03:20:57;;;;;;;;;;;;;;;9.18;70.48;102081.94;1948408;74;20190;-58
2021/10/02 03:23:31;;;;;;;;;;;;;;;9.15;70.62;102076.70;1948560;74;20193;-58
2021/10/02 03:25:55;;;;;;;;;;;;;;;9.12;70.31;102082.88;1947376;74;20146;-58
2021/10/02 03:28:23;;;;;;;;;;;;;;;9.11;70.18;102080.27;1948450;74;20138;-58
2021/10/02 03:30:51;;;;;;;;;;;;;;;9.09;70.08;102073.70;1949913;73;20113;-58
2021/10/02 03:33:20;;;;;;;;;;;;;;;9.10;70.02;102082.48;1950694;74;20156;-58
2021/10/02 03:35:49;;;;;;;;;;;;;;;9.09;70.00;102076.34;1950733;74;20120;-60
2021/10/02 03:38:16;;;;;;;;;;;;;;;9.10;70.00;102069.34;1950740;74;20143;-58
2021/10/02 03:40:44;;;;;;;;;;;;;;;9.09;69.91;102068.45;1950735;74;20190;-58
2021/10/02 03:43:13;;;;;;;;;;;;;;;9.11;69.93;102067.13;1950757;74;20100;-58
2021/10/02 03:45:41;;;;;;;;;;;;;;;9.11;69.94;102068.02;1950674;74;20194;-58
2021/10/02 03:48:10;;;;;;;;;;;;;;;9.10;70.11;102067.58;1950738;74;20116;-58
2021/10/02 03:50:38;;;;;;;;;;;;;;;9.11;70.48;102066.70;1950737;74;20139;-58
2021/10/02 03:53:06;;;;;;;;;;;;;;;9.10;70.90;102064.95;1950727;74;20144;-58
2021/10/02 03:55:34;;;;;;;;;;;;;;;9.11;71.00;102069.75;1950751;74;20120;-58
2021/10/02 03:58:02;;;;;;;;;;;;;;;9.10;70.86;102066.27;1950647;74;20138;-58
2021/10/02 04:00:30;;;;;;;;;;;;;;;9.10;70.87;102061.02;1950688;74;20124;-58
2021/10/02 04:02:57;;;;;;;;;;;;;;;9.11;71.03;102064.50;1950675;74;20143;-58
2021/10/02 04:05:25;;;;;;;;;;;;;;;9.12;70.99;102069.74;1950697;74;20116;-58
2021/10/02 04:07:53;;;;;;;;;;;;;;;9.13;71.01;102066.66;1950761;74;20100;-58
2021/10/02 04:10:21;;;;;;;;;;;;;;;9.13;71.36;102070.19;1950808;74;20143;-60
2021/10/02 04:12:48;;;;;;;;;;;;;;;9.16;71.70;102068.81;1950628;74;20213;-58
2021/10/02 04:15:16;;;;;;;;;;;;;;;9.17;71.58;102069.70;1950724;73;20151;-58
2021/10/02 04:17:44;;;;;;;;;;;;;;;9.18;71.68;102067.03;1950671;74;20116;-58
2021/10/02 04:20:12;;;;;;;;;;;;;;;9.21;72.15;102080.14;1950685;74;20116;-58
2021/10/02 04:22:40;;;;;;;;;;;;;;;9.21;72.24;102074.89;1950741;74;20112;-57
2021/10/02 04:25:08;;;;;;;;;;;;;;;9.24;72.68;102081.85;1950611;74;20116;-59
2021/10/02 04:27:36;;;;;;;;;;;;;;;9.24;72.33;102080.54;1950731;74;20116;-58
2021/10/02 04:30:05;;;;;;;;;;;;;;;9.25;72.45;102076.58;1949874;74;20128;-58
2021/10/02 04:32:32;;;;;;;;;;;;;;;9.27;72.56;102080.52;1942284;74;20147;-59
2021/10/02 04:35:00;;;;;;;;;;;;;;;9.28;72.86;102077.02;1942228;74;20151;-59
2021/10/02 04:37:28;;;;;;;;;;;;;;;9.30;72.48;102075.69;1942178;74;20113;-59
2021/10/02 04:39:56;;;;;;;;;;;;;;;9.33;72.45;102076.94;1942093;74;20196;-58
2021/10/02 04:42:24;;;;;;;;;;;;;;;9.35;72.36;102076.47;1942186;74;20109;-58
2021/10/02 04:44:51;;;;;;;;;;;;;;;9.35;72.62;102079.09;1942187;74;20105;-58
2021/10/02 04:47:19;;;;;;;;;;;;;;;9.36;73.04;102076.91;1942188;74;20142;-58
2021/10/02 04:49:47;;;;;;;;;;;;;;;9.35;73.09;102077.36;1942151;74;20116;-58
2021/10/02 04:52:16;;;;;;;;;;;;;;;9.37;72.98;102077.31;1942057;74;20150;-59
2021/10/02 04:54:44;;;;;;;;;;;;;;;9.37;72.80;102080.84;1942206;74;20147;-60
2021/10/02 04:57:11;;;;;;;;;;;;;;;9.40;73.49;102085.17;1942196;74;20112;-60
2021/10/02 04:59:39;;;;;;;;;;;;;;;9.44;73.66;102082.92;1942138;74;20104;-60
2021/10/02 05:02:07;;;;;;;;;;;;;;;9.45;74.37;102088.63;1942173;73;20117;-60
2021/10/02 05:04:35;;;;;;;;;;;;;;;9.47;74.03;102090.78;1942164;74;20148;-61
2021/10/02 05:07:03;;;;;;;;;;;;;;;9.52;74.01;102088.97;1942126;74;20116;-60
2021/10/02 05:09:31;;;;;;;;;;;;;;;9.56;74.87;102093.30;1942176;74;20104;-60
2021/10/02 05:11:59;;;;;;;;;;;;;;;9.58;74.13;102094.14;1942199;74;20108;-60
2021/10/02 05:14:27;;;;;;;;;;;;;;;9.58;74.53;102091.52;1942151;74;20117;-60
2021/10/02 05:16:54;;;;;;;;;;;;;;;9.60;74.28;102096.30;1942307;74;20101;-60
2021/10/02 05:19:22;;;;;;;;;;;;;;;9.60;74.35;102100.25;1942230;74;20157;-60
2021/10/02 05:21:50;;;;;;;;;;;;;;;9.60;74.28;102097.61;1942295;74;20112;-60
2021/10/02 05:24:18;;;;;;;;;;;;;;;9.61;74.25;102096.73;1942274;74;20143;-60
2021/10/02 05:26:45;;;;;;;;;;;;;;;9.61;74.52;102100.69;1942271;74;20147;-60
2021/10/02 05:29:13;;;;;;;;;;;;;;;9.59;74.32;102099.84;1942299;74;20164;-60
2021/10/02 05:31:41;;;;;;;;;;;;;;;9.59;74.73;102102.47;1946771;73;20116;-62
2021/10/02 05:34:09;;;;;;;;;;;;;;;9.57;74.77;102100.31;1950761;74;20225;-60
2021/10/02 05:36:37;;;;;;;;;;;;;;;9.56;74.62;102098.55;1950792;74;20117;-60
2021/10/02 05:39:04;;;;;;;;;;;;;;;9.58;75.19;102106.42;1950762;74;20116;-60
2021/10/02 05:41:33;;;;;;;;;;;;;;;9.58;74.98;102100.72;1950799;74;20100;-60
2021/10/02 05:44:01;;;;;;;;;;;;;;;9.59;74.97;102105.09;1950783;74;20120;-60
2021/10/02 05:46:28;;;;;;;;;;;;;;;9.60;75.29;102105.50;1950726;74;20142;-60
2021/10/02 05:48:56;;;;;;;;;;;;;;;9.61;75.78;102105.95;1950788;74;20108;-60
2021/10/02 05:51:24;;;;;;;;;;;;;;;9.61;75.16;102105.95;1950798;74;20142;-60
2021/10/02 05:53:52;;;;;;;;;;;;;;;9.65;76.21;102102.38;1950793;74;20128;-61
2021/10/02 05:56:20;;;;;;;;;;;;;;;9.64;76.16;102104.56;1950814;74;20101;-60
2021/10/02 05:58:48;;;;;;;;;;;;;;;9.68;76.16;102095.33;1950733;74;20117;-62
2021/10/02 06:01:16;;;;;;;;;;;;;;;9.69;75.65;102099.26;1950856;74;20214;-61
2021/10/02 06:03:45;;;;;;;;;;;;;;;9.75;75.62;102108.37;1950799;74;20108;-60
2021/10/02 06:06:13;;;;;;;;;;;;;;;9.78;75.94;102108.80;1950798;74;20100;-60
2021/10/02 06:08:42;;;;;;;;;;;;;;;9.79;75.50;102107.89;1950760;74;20140;-61
2021/10/02 06:11:10;;;;;;;;;;;;;;;9.81;75.55;102107.41;1950790;74;20124;-61
2021/10/02 06:13:38;;;;;;;;;;;;;;;9.84;76.48;102111.33;1950673;74;20116;-61
2021/10/02 06:16:06;;;;;;;;;;;;;;;9.86;76.39;102102.97;1950774;74;20113;-61
2021/10/02 13:06:02;;;;;;;;;;;;;;;17.27;54.12;101894.74;1965775;70;20163;-62
2021/10/02 13:08:30;;;;;;;;;;;;;;;17.21;54.29;101895.02;2036541;70;20112;-60
2021/10/02 13:10:58;;;;;;;;;;;;;;;17.17;54.24;101894.30;2034311;70;20261;-59
2021/10/02 13:13:26;;;;;;;;;;;;;;;17.18;54.29;101895.56;2020926;71;20111;-59
2021/10/02 13:15:55;;;;;;;;;;;;;;;17.18;54.03;101895.56;1998803;71;20136;-60
2021/10/02 13:18:24;;;;;;;;;;;;;;;17.19;54.28;101884.47;2029512;71;20395;-60
2021/10/02 13:20:53;;;;;;;;;;;;;;;17.19;54.28;101881.81;2029409;71;20108;-60
2021/10/02 13:23:34;;;;;;;;;;;;;;;17.18;54.37;101876.09;2029415;71;20389;-60
2021/10/02 13:26:04;;;;;;;;;;;;;;;17.17;54.26;101876.56;2029394;71;20134;-61
2021/10/02 13:28:33;;;;;;;;;;;;;;;17.15;54.23;101872.23;2029380;71;20112;-60
2021/10/02 13:31:08;;;;;;;;;;;;;;;17.15;54.01;101878.88;2029384;71;20353;-60
2021/10/02 13:33:40;;;;;;;;;;;;;;;17.14;54.39;101874.52;2029497;71;20107;-60
2021/10/02 13:36:08;;;;;;;;;;;;;;;17.13;54.63;101874.11;2029432;71;20147;-62
2021/10/02 13:38:37;;;;;;;;;;;;;;;17.09;54.47;101876.53;2029628;71;20138;-62
2021/10/02 13:41:07;;;;;;;;;;;;;;;17.05;54.68;101873.63;2030920;70;20174;-64
2021/10/02 13:43:35;;;;;;;;;;;;;;;16.98;54.63;101868.58;2036064;70;20107;-62
2021/10/02 13:46:04;;;;;;;;;;;;;;;16.93;54.93;101865.30;2035530;70;20112;-63
2021/10/02 13:48:32;;;;;;;;;;;;;;;16.90;55.21;101865.44;2029630;71;20108;-63
2021/10/02 13:51:00;;;;;;;;;;;;;;;16.89;55.30;101862.84;2030682;70;20181;-60
2021/10/02 13:53:27;;;;;;;;;;;;;;;16.88;55.59;101859.81;2036861;70;20138;-60
2021/10/02 13:55:55;;;;;;;;;;;;;;;16.85;55.64;101862.13;2035715;70;20665;-60
2021/10/02 13:58:23;;;;;;;;;;;;;;;16.85;55.79;101866.59;2029603;71;20107;-60
2021/10/02 14:00:51;;;;;;;;;;;;;;;16.83;55.16;101869.80;2030435;70;20107;-61
2021/10/02 14:03:18;;;;;;;;;;;;;;;16.81;55.38;101867.17;2036725;70;20155;-61
2021/10/02 14:05:46;;;;;;;;;;;;;;;16.79;55.55;101867.24;2036114;70;20100;-62
2021/10/02 14:08:14;;;;;;;;;;;;;;;16.77;55.18;101865.60;2029747;70;20112;-62
2021/10/02 14:10:42;;;;;;;;;;;;;;;16.78;55.25;101867.31;2029842;70;20146;-61
2021/10/02 14:13:10;;;;;;;;;;;;;;;16.74;55.47;101863.08;2036830;70;20141;-61
2021/10/02 14:15:38;;;;;;;;;;;;;;;16.68;55.77;101860.72;2036608;70;20099;-61
2021/10/02 14:18:05;;;;;;;;;;;;;;;16.62;56.02;101864.53;2029615;71;20374;-61
2021/10/02 14:20:33;;;;;;;;;;;;;;;16.55;56.05;101863.08;2029556;71;20112;-61
2021/10/02 14:23:01;;;;;;;;;;;;;;;16.50;56.18;101868.59;2029614;71;20131;-61
2021/10/02 14:25:29;;;;;;;;;;;;;;;16.46;56.34;101872.34;2029604;71;20112;-61
2021/10/02 14:27:57;;;;;;;;;;;;;;;16.42;56.41;101872.09;2029611;71;20142;-62
2021/10/02 14:30:25;;;;;;;;;;;;;;;16.38;56.50;101868.70;2029613;71;20108;-61
2021/10/02 14:32:56;;;;;;;;;;;;;;;16.36;56.34;101867.06;2029592;71;20190;-61
2021/10/02 14:35:24;;;;;;;;;;;;;;;16.34;56.39;101868.90;2029744;71;20369;-61
2021/10/02 14:37:51;;;;;;;;;;;;;;;16.29;56.48;101873.11;2029657;71;20142;-61
2021/10/02 14:40:19;;;;;;;;;;;;;;;16.25;56.58;101874.19;2029576;71;20170;-61
2021/10/02 14:42:48;;;;;;;;;;;;;;;16.20;56.71;101871.72;2029746;71;20100;-61
2021/10/02 14:45:16;;;;;;;;;;;;;;;16.17;56.84;101870.98;2029607;71;20179;-60
2021/10/02 14:47:44;;;;;;;;;;;;;;;16.12;57.02;101870.33;2028959;71;20142;-66
2021/10/02 14:50:12;;;;;;;;;;;;;;;16.06;57.19;101867.95;2029529;71;20107;-61
2021/10/02 14:52:40;;;;;;;;;;;;;;;16.01;57.29;101870.83;2029403;71;20142;-63
2021/10/02 14:55:10;;;;;;;;;;;;;;;15.94;57.42;101869.36;2029579;71;20104;-60
2021/10/02 14:57:38;;;;;;;;;;;;;;;15.90;57.53;101871.28;2033410;70;20111;-60
2021/10/02 15:00:07;;;;;;;;;;;;;;;15.83;57.68;101870.68;2036506;70;20138;-60
2021/10/02 15:02:35;;;;;;;;;;;;;;;15.78;57.86;101875.31;2030715;70;20595;-59
2021/10/02 15:05:03;;;;;;;;;;;;;;;15.74;57.88;101883.02;2029627;71;20186;-59
2021/10/02 15:07:31;;;;;;;;;;;;;;;15.71;57.97;101884.44;2032888;70;20232;-61
2021/10/02 15:09:59;;;;;;;;;;;;;;;15.66;58.12;101890.87;2030610;71;20249;-63
2021/10/02 15:12:27;;;;;;;;;;;;;;;15.61;58.21;101905.20;2006896;71;20143;-62
2021/10/02 15:14:55;;;;;;;;;;;;;;;15.56;58.35;101894.38;1999672;72;20106;-60
2021/10/02 15:17:22;;;;;;;;;;;;;;;15.50;58.55;101898.63;1999779;71;20105;-64
2021/10/02 15:19:51;;;;;;;;;;;;;;;15.42;58.71;101897.16;1999626;72;20118;-64
2021/10/02 15:22:23;;;;;;;;;;;;;;;15.38;58.99;101899.98;2014374;71;20354;-61
2021/10/02 15:24:52;;;;;;;;;;;;;;;15.33;58.99;101894.87;2019922;71;20138;-61
2021/10/02 15:30:12;;;;;;;;;;;;;;;15.24;59.25;101905.39;1998205;72;20110;-60
2021/10/02 15:32:40;;;;;;;;;;;;;;;15.18;59.41;101910.95;1990884;72;20197;-59
2021/10/02 15:35:08;;;;;;;;;;;;;;;15.14;59.41;101920.40;1989758;72;20144;-59
2021/10/02 15:37:36;;;;;;;;;;;;;;;15.10;59.43;101917.00;1996460;72;20168;-64
2021/10/02 15:40:05;;;;;;;;;;;;;;;15.07;59.49;101918.47;1998064;72;20144;-59
2021/10/02 15:42:33;;;;;;;;;;;;;;;15.02;59.53;101922.61;1968111;72;20110;-59
2021/10/02 15:45:01;;;;;;;;;;;;;;;14.97;59.68;101927.22;1960806;73;20113;-60
2021/10/02 15:47:29;;;;;;;;;;;;;;;14.91;59.86;101927.47;1989846;72;20097;-60
2021/10/02 15:49:58;;;;;;;;;;;;;;;14.85;60.02;101927.25;1998111;72;20102;-59
2021/10/02 15:52:26;;;;;;;;;;;;;;;14.79;60.08;101938.53;1991558;72;20118;-60
2021/10/02 15:54:54;;;;;;;;;;;;;;;14.71;60.30;101935.31;1989866;72;20145;-60
2021/10/02 15:57:22;;;;;;;;;;;;;;;14.64;60.72;101946.59;1981807;72;20110;-60
2021/10/02 15:59:51;;;;;;;;;;;;;;;14.56;60.62;101938.90;1978879;72;20145;-61
2021/10/02 16:02:29;;;;;;;;;;;;;;;14.50;60.86;101944.44;1985858;72;20110;-62
2021/10/02 16:04:58;;;;;;;;;;;;;;;14.42;60.95;101950.45;1989775;72;20201;-63
2021/10/02 16:07:26;;;;;;;;;;;;;;;14.34;61.06;101951.20;1995561;72;20191;-62
2021/10/02 16:09:55;;;;;;;;;;;;;;;14.24;61.19;101946.23;1997951;72;20113;-64
2021/10/02 16:12:24;;;;;;;;;;;;;;;14.19;61.48;101944.66;1991892;72;20114;-63
2021/10/02 16:14:53;;;;;;;;;;;;;;;14.11;61.74;101947.58;1989781;72;20110;-62
2021/10/02 16:17:21;;;;;;;;;;;;;;;14.04;61.72;101946.06;1981690;72;20113;-67
2021/10/02 16:19:50;;;;;;;;;;;;;;;13.96;61.90;101946.77;1978841;72;20115;-65
2021/10/02 16:22:19;;;;;;;;;;;;;;;13.89;62.07;101944.80;1986660;72;20144;-64
2021/10/02 16:24:47;;;;;;;;;;;;;;;13.82;62.21;101945.45;1989773;72;20156;-63
2021/10/02 16:27:15;;;;;;;;;;;;;;;13.77;62.75;101944.73;1982258;72;20165;-63
2021/10/02 16:29:43;;;;;;;;;;;;;;;13.71;62.81;101947.59;2000891;71;20101;-64
2021/10/02 16:32:11;;;;;;;;;;;;;;;13.66;63.12;101947.73;2018286;71;20112;-64
2021/10/02 16:34:40;;;;;;;;;;;;;;;13.61;63.52;101946.15;2021131;71;20116;-64
2021/10/02 16:37:09;;;;;;;;;;;;;;;13.58;63.63;101948.92;2014041;71;20143;-64
2021/10/02 16:39:38;;;;;;;;;;;;;;;13.53;63.81;101956.13;2009918;71;20116;-63
2021/10/02 16:42:06;;;;;;;;;;;;;;;13.49;63.74;101956.69;2016786;71;20433;-63
2021/10/02 16:44:34;;;;;;;;;;;;;;;13.42;63.84;101957.33;2021025;71;20191;-63
2021/10/02 16:47:02;;;;;;;;;;;;;;;13.38;64.07;101962.31;2014247;71;20112;-61
2021/10/02 16:49:32;;;;;;;;;;;;;;;13.32;64.12;101963.37;2009796;71;20117;-60
2021/10/02 16:52:00;;;;;;;;;;;;;;;13.28;64.53;101970.11;2016281;71;20372;-60
2021/10/02 16:54:29;;;;;;;;;;;;;;;13.24;64.58;101968.44;2021102;71;20108;-62
2021/10/02 16:56:56;;;;;;;;;;;;;;;13.20;64.53;101974.75;2014651;71;20116;-60
2021/10/02 16:59:24;;;;;;;;;;;;;;;13.14;64.72;101981.09;2009843;71;20108;-60
2021/10/02 17:01:53;;;;;;;;;;;;;;;13.10;65.39;101983.42;2015601;71;20146;-62
2021/10/02 17:04:21;;;;;;;;;;;;;;;13.05;65.22;101987.51;2021230;71;20415;-61
2021/10/02 17:06:48;;;;;;;;;;;;;;;13.04;65.44;101984.91;2015372;71;20113;-58
2021/10/02 17:09:16;;;;;;;;;;;;;;;13.00;65.29;101985.45;2009756;71;20112;-60
2021/10/02 17:11:44;;;;;;;;;;;;;;;12.98;65.67;101988.59;2015037;71;20096;-61
2021/10/02 17:14:12;;;;;;;;;;;;;;;12.94;65.55;101982.53;2021074;71;20382;-60
2021/10/02 17:16:40;;;;;;;;;;;;;;;12.92;65.73;101987.46;2016096;71;20096;-60
2021/10/02 17:19:08;;;;;;;;;;;;;;;12.90;66.03;101995.44;2009759;71;20100;-62
2021/10/02 17:21:36;;;;;;;;;;;;;;;12.88;65.91;101993.75;2017729;69;20226;-60
2021/10/02 17:24:04;;;;;;;;;;;;;;;12.87;66.18;101989.37;2047156;69;20113;-63
2021/10/02 17:26:32;;;;;;;;;;;;;;;12.84;66.11;101990.33;2034225;69;20146;-60
2021/10/02 17:29:00;;;;;;;;;;;;;;;12.83;65.96;101986.41;2020969;71;20112;-60
2021/10/02 17:31:34;;;;;;;;;;;;;;;12.81;65.99;101991.73;2017296;71;20187;-60
2021/10/02 17:33:57;;;;;;;;;;;;;;;12.81;66.22;101990.88;2009112;70;20151;-60
2021/10/02 17:36:25;;;;;;;;;;;;;;;12.79;66.29;101992.23;2013424;71;20108;-62
2021/10/02 17:38:53;;;;;;;;;;;;;;;12.79;66.25;101986.09;2021105;71;20112;-62
2021/10/02 17:41:21;;;;;;;;;;;;;;;12.79;66.11;101992.23;2017476;71;20587;-62
2021/10/02 17:43:49;;;;;;;;;;;;;;;12.77;66.23;101989.23;2009941;71;20096;-61
2021/10/02 17:46:21;;;;;;;;;;;;;;;12.73;66.22;101981.38;2012912;71;20142;-61
2021/10/02 17:48:46;;;;;;;;;;;;;;;12.72;66.12;101985.38;2019666;71;20193;-62
2021/10/02 17:51:14;;;;;;;;;;;;;;;12.69;66.04;101987.67;2023414;71;20100;-62
2021/10/02 17:53:43;;;;;;;;;;;;;;;12.65;66.35;101990.00;2029600;71;20107;-60
2021/10/02 17:56:11;;;;;;;;;;;;;;;12.63;66.22;101986.50;2020722;71;20114;-61
2021/10/02 17:58:39;;;;;;;;;;;;;;;12.61;66.17;101990.96;1992458;71;20140;-61
2021/10/02 18:01:08;;;;;;;;;;;;;;;12.57;66.33;101989.32;1998501;71;20120;-63
2021/10/02 18:03:37;;;;;;;;;;;;;;;12.53;66.17;101989.00;2020946;71;20443;-63
2021/10/02 18:06:05;;;;;;;;;;;;;;;12.49;66.04;101988.67;2022680;71;20134;-64
2021/10/02 18:08:34;;;;;;;;;;;;;;;12.43;66.06;101982.22;2029641;71;20107;-62
2021/10/02 18:11:03;;;;;;;;;;;;;;;12.35;66.08;101979.33;2022862;71;20118;-62
2021/10/02 18:13:31;;;;;;;;;;;;;;;12.30;66.20;101981.25;1992537;72;20110;-62
2021/10/02 18:15:58;;;;;;;;;;;;;;;12.26;66.45;101979.57;1996833;71;20115;-64
2021/10/02 18:18:26;;;;;;;;;;;;;;;12.23;66.33;101979.67;2021088;71;20174;-60
2021/10/02 18:20:54;;;;;;;;;;;;;;;12.17;66.25;101979.81;2019556;71;20191;-60
2021/10/02 18:23:23;;;;;;;;;;;;;;;12.13;66.26;101980.80;2009943;71;20109;-60
2021/10/02 18:28:20;;;;;;;;;;;;;;;12.01;66.02;101978.47;2021218;71;20138;-63
2021/10/02 18:30:51;;;;;;;;;;;;;;;11.94;65.95;101979.09;2020033;71;20112;-63
2021/10/02 18:33:18;;;;;;;;;;;;;;;11.86;65.92;101976.61;2009990;71;20121;-64
2021/10/02 18:35:46;;;;;;;;;;;;;;;11.79;65.94;101975.88;2010643;71;20348;-64
2021/10/02 18:38:14;;;;;;;;;;;;;;;11.75;66.25;101974.23;2021207;71;20096;-65
2021/10/02 18:40:42;;;;;;;;;;;;;;;11.73;66.33;101974.72;2020673;71;20100;-64
2021/10/02 18:43:10;;;;;;;;;;;;;;;11.70;66.15;101972.61;2009906;71;20187;-64
2021/10/02 18:45:39;;;;;;;;;;;;;;;11.69;66.80;101971.75;2010047;71;20120;-59
2021/10/02 18:48:07;;;;;;;;;;;;;;;11.69;66.99;101976.14;2021122;71;20151;-62
2021/10/02 18:50:35;;;;;;;;;;;;;;;11.67;66.79;101968.25;2021169;71;20119;-62
2021/10/02 18:53:03;;;;;;;;;;;;;;;11.64;66.79;101966.14;1992993;72;20110;-61
2021/10/02 18:55:31;;;;;;;;;;;;;;;11.62;66.85;101969.27;1992975;72;20136;-60
2021/10/02 18:57:59;;;;;;;;;;;;;;;11.60;66.92;101968.02;2029159;71;20179;-64
2021/10/02 19:00:27;;;;;;;;;;;;;;;11.58;66.85;101973.32;2029704;71;20147;-62
2021/10/02 19:02:55;;;;;;;;;;;;;;;11.55;66.63;101969.42;1994020;71;20136;-63
2021/10/02 19:05:25;;;;;;;;;;;;;;;11.53;66.62;101974.33;1992263;72;20176;-65
2021/10/02 19:07:53;;;;;;;;;;;;;;;11.50;66.57;101972.61;2019515;71;20112;-65
2021/10/02 19:10:20;;;;;;;;;;;;;;;11.47;66.49;101970.50;2021113;71;20104;-62
2021/10/02 19:12:49;;;;;;;;;;;;;;;11.44;66.46;101971.45;2010852;71;20113;-62
2021/10/02 19:15:18;;;;;;;;;;;;;;;11.40;66.49;101972.43;2010148;71;20100;-62
2021/10/02 19:17:46;;;;;;;;;;;;;;;11.38;66.62;101966.33;2019956;71;20116;-61
2021/10/02 19:20:14;;;;;;;;;;;;;;;11.37;66.60;101969.84;2021171;71;20143;-61
2021/10/02 19:22:42;;;;;;;;;;;;;;;11.34;66.69;101964.64;2028525;71;20112;-62
2021/10/02 19:25:11;;;;;;;;;;;;;;;11.31;66.65;101956.36;2029635;71;20116;-63
2021/10/02 19:27:39;;;;;;;;;;;;;;;11.27;66.57;101965.25;2022347;71;20369;-63
2021/10/02 19:30:09;;;;;;;;;;;;;;;11.24;66.62;101963.13;2021216;71;20189;-61
2021/10/02 19:32:37;;;;;;;;;;;;;;;11.21;66.73;101960.09;2028143;71;20448;-60
2021/10/02 19:35:05;;;;;;;;;;;;;;;11.19;66.69;101959.26;2029623;71;20107;-61
2021/10/02 19:37:33;;;;;;;;;;;;;;;11.16;66.79;101953.61;1999489;71;20118;-60
2021/10/02 19:40:01;;;;;;;;;;;;;;;11.15;66.98;101954.50;1992575;72;20114;-60
2021/10/02 19:42:29;;;;;;;;;;;;;;;11.13;66.97;101953.67;2014793;71;20104;-60
2021/10/02 19:44:57;;;;;;;;;;;;;;;11.13;67.80;101954.98;2021149;71;20186;-60
2021/10/02 19:47:24;;;;;;;;;;;;;;;11.15;68.42;101950.55;2012666;71;20108;-61
2021/10/02 19:49:52;;;;;;;;;;;;;;;11.20;69.28;101947.83;2009864;71;20112;-64
2021/10/02 19:52:20;;;;;;;;;;;;;;;11.26;69.54;101952.95;2017862;71;20108;-62
2021/10/02 19:54:48;;;;;;;;;;;;;;;11.33;69.93;101951.05;2021152;71;20104;-62
2021/10/02 19:57:16;;;;;;;;;;;;;;;11.39;69.75;101950.44;2013330;71;20097;-63
2021/10/02 19:59:45;;;;;;;;;;;;;;;11.43;69.46;101947.28;2009954;71;20100;-62
2021/10/02 20:02:13;;;;;;;;;;;;;;;11.46;69.30;101937.99;2017453;71;20350;-62
2021/10/02 20:04:42;;;;;;;;;;;;;;;11.49;68.94;101944.52;2021203;71;20222;-62
2021/10/02 20:07:09;;;;;;;;;;;;;;;11.51;68.77;101945.34;2013763;71;20108;-62
2021/10/02 20:09:37;;;;;;;;;;;;;;;11.52;68.54;101945.75;2009875;71;20163;-62
2021/10/02 20:12:05;;;;;;;;;;;;;;;11.52;68.29;101947.06;2016789;71;20112;-62
2021/10/02 20:14:33;;;;;;;;;;;;;;;11.52;68.12;101945.75;2021168;71;20138;-62
2021/10/02 20:17:01;;;;;;;;;;;;;;;11.51;68.06;101947.98;2026014;71;20112;-62
2021/10/02 20:19:29;;;;;;;;;;;;;;;11.53;68.11;101942.68;2029645;71;20104;-61
2021/10/02 20:21:57;;;;;;;;;;;;;;;11.54;68.13;101943.08;2008862;71;20172;-61
2021/10/02 20:24:24;;;;;;;;;;;;;;;11.55;68.30;101944.83;1992565;72;20110;-61
2021/10/02 20:26:52;;;;;;;;;;;;;;;11.55;68.90;101943.05;2011978;71;20139;-61
2021/10/02 20:29:21;;;;;;;;;;;;;;;11.55;69.61;101939.55;2029880;71;20419;-62
2021/10/02 20:31:49;;;;;;;;;;;;;;;11.55;69.37;101940.41;2011160;71;20596;-61